createdAt,value
2019-05-10T00:00:54.955Z,0.00
2019-05-10T00:01:55.031Z,0.00
2019-05-10T00:02:55.060Z,0.00
2019-05-10T00:03:55.142Z,0.00
2019-05-10T00:04:55.210Z,0.00
2019-05-10T00:05:55.254Z,0.00
2019-05-10T00:06:55.308Z,0.00
2019-05-10T00:07:55.387Z,0.00
2019-05-10T00:08:55.657Z,0.00
2019-05-10T00:09:55.998Z,0.00
2019-05-10T00:10:55.561Z,0.00
2019-05-10T00:11:55.624Z,0.00
2019-05-10T00:12:55.687Z,0.00
2019-05-10T00:13:55.751Z,0.00
2019-05-10T00:14:55.805Z,0.00
2019-05-10T00:15:55.891Z,0.00
2019-05-10T00:16:55.936Z,0.00
2019-05-10T00:17:55.999Z,0.00
2019-05-10T00:18:56.061Z,0.00
2019-05-10T00:19:56.122Z,0.00
2019-05-10T00:20:56.193Z,0.00
2019-05-10T00:21:56.245Z,0.00
2019-05-10T00:22:56.305Z,0.00
2019-05-10T00:23:56.370Z,0.00
2019-05-10T00:25:03.672Z,0.00
2019-05-10T00:25:56.501Z,0.00
2019-05-10T00:26:56.570Z,0.00
2019-05-10T00:27:56.617Z,0.00
2019-05-10T00:28:56.675Z,0.00
2019-05-10T00:29:56.738Z,0.00
2019-05-10T00:30:56.811Z,0.00
2019-05-10T00:31:56.871Z,0.00
2019-05-10T00:32:56.930Z,0.00
2019-05-10T00:33:56.987Z,0.00
2019-05-10T00:34:57.050Z,0.00
2019-05-10T00:35:57.125Z,0.00
2019-05-10T00:36:57.174Z,0.00
2019-05-10T00:37:57.239Z,0.00
2019-05-10T00:38:57.300Z,0.00
2019-05-10T00:39:57.365Z,0.00
2019-05-10T00:40:57.430Z,0.00
2019-05-10T00:41:57.496Z,0.00
2019-05-10T00:42:57.546Z,0.00
2019-05-10T00:43:57.611Z,0.00
2019-05-10T00:44:57.675Z,0.00
2019-05-10T00:45:57.747Z,0.00
2019-05-10T00:46:57.808Z,0.00
2019-05-10T00:47:57.859Z,0.00
2019-05-10T00:48:57.924Z,0.00
2019-05-10T00:49:57.983Z,0.00
2019-05-10T00:50:58.055Z,0.00
2019-05-10T00:51:58.125Z,0.00
2019-05-10T00:52:58.171Z,0.00
2019-05-10T00:53:58.234Z,0.00
2019-05-10T00:54:58.295Z,0.00
2019-05-10T00:55:58.449Z,0.00
2019-05-10T00:56:58.422Z,0.00
2019-05-10T00:57:58.479Z,0.00
2019-05-10T00:58:58.545Z,0.00
2019-05-10T00:59:58.608Z,0.00
2019-05-10T01:00:58.675Z,0.00
2019-05-10T01:01:58.735Z,0.00
2019-05-10T01:02:58.791Z,0.00
2019-05-10T01:03:58.858Z,0.00
2019-05-10T01:04:58.920Z,0.00
2019-05-10T01:05:58.984Z,0.00
2019-05-10T01:06:59.059Z,0.00
2019-05-10T01:07:59.104Z,0.00
2019-05-10T01:08:59.164Z,0.00
2019-05-10T01:09:59.234Z,0.00
2019-05-10T01:10:59.292Z,0.00
2019-05-10T01:11:59.372Z,0.00
2019-05-10T01:12:59.413Z,0.00
2019-05-10T01:13:59.474Z,0.00
2019-05-10T01:14:59.536Z,0.00
2019-05-10T01:15:59.602Z,0.00
2019-05-10T01:16:59.669Z,0.00
2019-05-10T01:17:59.737Z,0.00
2019-05-10T01:18:59.785Z,0.00
2019-05-10T01:19:59.855Z,0.00
2019-05-10T01:20:59.914Z,0.00
2019-05-10T01:21:59.984Z,0.00
2019-05-10T01:23:00.041Z,0.00
2019-05-10T01:24:00.101Z,0.00
2019-05-10T01:25:00.160Z,0.00
2019-05-10T01:26:00.221Z,0.00
2019-05-10T01:27:00.305Z,0.00
2019-05-10T01:28:00.349Z,0.00
2019-05-10T01:29:00.458Z,0.00
2019-05-10T01:30:00.470Z,0.00
2019-05-10T01:31:00.533Z,0.00
2019-05-10T01:32:00.601Z,0.00
2019-05-10T01:33:00.665Z,0.00
2019-05-10T01:34:00.725Z,0.00
2019-05-10T01:35:00.783Z,0.00
2019-05-10T01:36:00.845Z,0.00
2019-05-10T01:37:00.915Z,0.00
2019-05-10T01:38:00.973Z,0.00
2019-05-10T01:39:01.033Z,0.00
2019-05-10T01:40:01.093Z,0.00
2019-05-10T01:41:01.154Z,0.00
2019-05-10T01:42:01.311Z,0.00
2019-05-10T01:43:01.278Z,0.00
2019-05-10T01:44:01.350Z,0.00
2019-05-10T01:45:01.411Z,0.00
2019-05-10T01:46:01.472Z,0.00
2019-05-10T01:47:01.534Z,0.00
2019-05-10T01:48:01.599Z,0.00
2019-05-10T01:49:01.655Z,0.00
2019-05-10T01:50:01.717Z,0.00
2019-05-10T01:51:01.787Z,0.00
2019-05-10T01:52:01.846Z,0.00
2019-05-10T01:53:01.909Z,0.00
2019-05-10T01:54:01.966Z,0.00
2019-05-10T01:55:02.049Z,0.00
2019-05-10T01:56:02.097Z,0.00
2019-05-10T01:57:02.162Z,0.00
2019-05-10T01:58:02.214Z,0.00
2019-05-10T01:59:02.271Z,0.00
2019-05-10T02:00:02.335Z,0.00
2019-05-10T02:01:02.408Z,0.00
2019-05-10T02:02:02.467Z,0.00
2019-05-10T02:03:02.609Z,0.00
2019-05-10T02:04:02.584Z,0.00
2019-05-10T02:05:02.655Z,0.00
2019-05-10T02:06:02.706Z,0.00
2019-05-10T02:07:02.773Z,0.00
2019-05-10T02:08:02.839Z,0.00
2019-05-10T02:09:02.896Z,0.00
2019-05-10T02:10:02.956Z,0.00
2019-05-10T02:11:03.020Z,0.00
2019-05-10T02:12:03.188Z,0.00
2019-05-10T02:13:03.143Z,0.00
2019-05-10T02:14:03.209Z,0.00
2019-05-10T02:15:03.272Z,0.00
2019-05-10T02:16:03.333Z,0.00
2019-05-10T02:17:03.401Z,0.00
2019-05-10T02:18:03.524Z,0.00
2019-05-10T02:19:03.515Z,0.00
2019-05-10T02:20:03.580Z,0.00
2019-05-10T02:21:03.642Z,0.00
2019-05-10T02:22:03.710Z,0.00
2019-05-10T02:23:03.771Z,0.00
2019-05-10T02:24:03.834Z,0.00
2019-05-10T02:25:03.899Z,0.00
2019-05-10T02:26:09.307Z,0.00
2019-05-10T02:27:04.018Z,0.00
2019-05-10T02:28:04.081Z,0.00
2019-05-10T02:29:04.146Z,0.00
2019-05-10T02:30:04.202Z,0.00
2019-05-10T02:31:04.261Z,0.00
2019-05-10T02:32:04.328Z,0.00
2019-05-10T02:33:04.393Z,0.00
2019-05-10T02:34:04.459Z,0.00
2019-05-10T02:35:04.508Z,0.00
2019-05-10T02:36:04.572Z,0.00
2019-05-10T02:37:04.645Z,0.00
2019-05-10T02:38:04.710Z,0.00
2019-05-10T02:39:04.760Z,0.00
2019-05-10T02:40:04.822Z,0.00
2019-05-10T02:41:04.881Z,0.00
2019-05-10T02:42:04.948Z,0.00
2019-05-10T02:43:05.031Z,0.00
2019-05-10T02:44:05.077Z,0.00
2019-05-10T02:45:05.132Z,0.00
2019-05-10T02:46:05.199Z,0.00
2019-05-10T02:47:05.364Z,0.00
2019-05-10T02:48:05.318Z,0.00
2019-05-10T02:49:05.380Z,0.00
2019-05-10T02:50:05.455Z,0.00
2019-05-10T02:51:05.502Z,0.00
2019-05-10T02:52:05.576Z,0.00
2019-05-10T02:53:05.638Z,0.00
2019-05-10T02:54:05.691Z,0.00
2019-05-10T02:55:05.763Z,0.00
2019-05-10T02:56:05.818Z,0.00
2019-05-10T02:57:05.885Z,0.00
2019-05-10T02:58:05.945Z,0.00
2019-05-10T02:59:05.999Z,0.00
2019-05-10T03:00:06.063Z,0.00
2019-05-10T03:01:06.130Z,0.00
2019-05-10T03:02:06.389Z,0.00
2019-05-10T03:03:06.246Z,0.00
2019-05-10T03:04:06.314Z,0.00
2019-05-10T03:05:06.378Z,0.00
2019-05-10T03:06:06.572Z,0.00
2019-05-10T03:07:06.504Z,0.00
2019-05-10T03:08:06.571Z,0.00
2019-05-10T03:09:06.623Z,0.00
2019-05-10T03:10:06.684Z,0.00
2019-05-10T03:11:06.745Z,0.00
2019-05-10T03:12:06.814Z,0.00
2019-05-10T03:13:06.886Z,0.00
2019-05-10T03:14:06.931Z,0.00
2019-05-10T03:15:06.998Z,0.00
2019-05-10T03:16:07.058Z,0.00
2019-05-10T03:17:07.130Z,0.00
2019-05-10T03:18:07.189Z,0.00
2019-05-10T03:19:07.243Z,0.00
2019-05-10T03:20:07.309Z,0.00
2019-05-10T03:21:07.366Z,0.00
2019-05-10T03:22:07.432Z,0.00
2019-05-10T03:23:07.500Z,0.00
2019-05-10T03:24:07.551Z,0.00
2019-05-10T03:25:07.617Z,0.00
2019-05-10T03:26:07.675Z,0.00
2019-05-10T03:27:07.748Z,0.00
2019-05-10T03:28:07.808Z,0.00
2019-05-10T03:29:07.863Z,0.00
2019-05-10T03:30:07.939Z,0.00
2019-05-10T03:31:07.993Z,0.00
2019-05-10T03:32:08.058Z,0.00
2019-05-10T03:33:08.116Z,4.00
2019-05-10T03:34:08.176Z,4.00
2019-05-10T03:35:08.315Z,0.00
2019-05-10T03:36:08.300Z,0.00
2019-05-10T03:37:08.376Z,4.00
2019-05-10T03:38:08.426Z,0.00
2019-05-10T03:39:08.481Z,4.00
2019-05-10T03:40:08.615Z,4.00
2019-05-10T03:41:08.605Z,4.00
2019-05-10T03:42:08.690Z,8.00
2019-05-10T03:43:08.749Z,4.00
2019-05-10T03:44:08.793Z,4.00
2019-05-10T03:45:08.853Z,8.00
2019-05-10T03:46:08.918Z,4.00
2019-05-10T03:47:08.990Z,8.00
2019-05-10T03:48:09.044Z,8.00
2019-05-10T03:49:09.138Z,16.00
2019-05-10T03:50:09.164Z,16.00
2019-05-10T03:51:09.229Z,20.00
2019-05-10T03:52:09.312Z,20.00
2019-05-10T03:53:09.350Z,24.00
2019-05-10T03:54:09.410Z,24.00
2019-05-10T03:55:09.481Z,28.00
2019-05-10T03:56:09.538Z,32.00
2019-05-10T03:57:13.800Z,36.00
2019-05-10T03:58:09.665Z,36.00
2019-05-10T03:59:09.722Z,36.00
2019-05-10T04:00:09.784Z,36.00
2019-05-10T04:01:09.845Z,40.00
2019-05-10T04:02:09.918Z,48.00
2019-05-10T04:03:09.973Z,48.00
2019-05-10T04:04:10.038Z,56.00
2019-05-10T04:05:10.093Z,56.00
2019-05-10T04:06:10.159Z,56.00
2019-05-10T04:07:10.238Z,64.00
2019-05-10T04:08:10.277Z,60.00
2019-05-10T04:09:10.338Z,64.00
2019-05-10T04:10:10.402Z,64.00
2019-05-10T04:11:10.537Z,72.00
2019-05-10T04:12:10.531Z,76.00
2019-05-10T04:13:10.594Z,68.00
2019-05-10T04:14:10.646Z,68.00
2019-05-10T04:15:10.710Z,68.00
2019-05-10T04:16:10.772Z,72.00
2019-05-10T04:17:10.842Z,76.00
2019-05-10T04:18:10.898Z,72.00
2019-05-10T04:19:11.091Z,68.00
2019-05-10T04:20:11.018Z,68.00
2019-05-10T04:21:11.077Z,60.00
2019-05-10T04:22:11.158Z,60.00
2019-05-10T04:23:11.210Z,60.00
2019-05-10T04:24:11.271Z,60.00
2019-05-10T04:25:11.333Z,80.00
2019-05-10T04:26:11.392Z,84.00
2019-05-10T04:27:29.492Z,88.00
2019-05-10T04:28:11.521Z,88.00
2019-05-10T04:29:11.575Z,100.00
2019-05-10T04:30:11.636Z,108.00
2019-05-10T04:31:11.703Z,116.00
2019-05-10T04:32:11.776Z,116.00
2019-05-10T04:33:11.836Z,108.00
2019-05-10T04:34:11.883Z,112.00
2019-05-10T04:35:11.950Z,112.00
2019-05-10T04:36:12.980Z,120.00
2019-05-10T04:37:12.079Z,132.00
2019-05-10T04:38:12.130Z,160.00
2019-05-10T04:39:12.195Z,188.00
2019-05-10T04:40:12.262Z,208.00
2019-05-10T04:41:12.337Z,216.00
2019-05-10T04:42:12.393Z,236.00
2019-05-10T04:43:12.451Z,228.00
2019-05-10T04:44:12.511Z,224.00
2019-05-10T04:45:12.566Z,220.00
2019-05-10T04:46:12.623Z,200.00
2019-05-10T04:47:12.696Z,172.00
2019-05-10T04:48:12.769Z,168.00
2019-05-10T04:49:12.816Z,164.00
2019-05-10T04:50:12.877Z,168.00
2019-05-10T04:51:12.936Z,180.00
2019-05-10T04:52:13.003Z,188.00
2019-05-10T04:53:13.280Z,180.00
2019-05-10T04:54:13.165Z,204.00
2019-05-10T04:55:13.237Z,200.00
2019-05-10T04:56:13.243Z,196.00
2019-05-10T04:57:13.407Z,192.00
2019-05-10T04:58:13.368Z,160.00
2019-05-10T04:59:13.436Z,128.00
2019-05-10T05:00:13.501Z,108.00
2019-05-10T05:01:13.654Z,108.00
2019-05-10T05:02:13.643Z,104.00
2019-05-10T05:03:13.692Z,96.00
2019-05-10T05:04:13.740Z,88.00
2019-05-10T05:05:13.804Z,88.00
2019-05-10T05:06:13.862Z,92.00
2019-05-10T05:07:13.933Z,104.00
2019-05-10T05:08:13.996Z,120.00
2019-05-10T05:09:14.052Z,136.00
2019-05-10T05:10:14.174Z,140.00
2019-05-10T05:11:14.174Z,140.00
2019-05-10T05:12:14.245Z,144.00
2019-05-10T05:13:14.302Z,144.00
2019-05-10T05:14:14.360Z,140.00
2019-05-10T05:15:14.427Z,140.00
2019-05-10T05:16:14.486Z,156.00
2019-05-10T05:17:14.555Z,180.00
2019-05-10T05:18:14.632Z,192.00
2019-05-10T05:19:14.681Z,208.00
2019-05-10T05:20:14.729Z,208.00
2019-05-10T05:21:14.797Z,244.00
2019-05-10T05:22:14.861Z,260.00
2019-05-10T05:23:14.926Z,264.00
2019-05-10T05:24:16.949Z,292.00
2019-05-10T05:25:15.048Z,288.00
2019-05-10T05:26:15.104Z,312.00
2019-05-10T05:27:15.173Z,308.00
2019-05-10T05:28:18.398Z,320.00
2019-05-10T05:29:15.285Z,328.00
2019-05-10T05:30:15.357Z,296.00
2019-05-10T05:31:15.410Z,252.00
2019-05-10T05:32:15.482Z,232.00
2019-05-10T05:33:15.549Z,224.00
2019-05-10T05:34:15.599Z,224.00
2019-05-10T05:35:15.685Z,236.00
2019-05-10T05:36:15.722Z,268.00
2019-05-10T05:37:15.798Z,300.00
2019-05-10T05:38:15.854Z,316.00
2019-05-10T05:39:15.905Z,320.00
2019-05-10T05:40:15.974Z,352.00
2019-05-10T05:41:16.035Z,396.00
2019-05-10T05:42:16.185Z,408.00
2019-05-10T05:43:16.153Z,424.00
2019-05-10T05:44:20.410Z,432.00
2019-05-10T05:45:16.280Z,432.00
2019-05-10T05:46:16.343Z,436.00
2019-05-10T05:47:16.416Z,448.00
2019-05-10T05:48:21.506Z,428.00
2019-05-10T05:49:16.527Z,368.00
2019-05-10T05:50:16.588Z,352.00
2019-05-10T05:51:16.657Z,352.00
2019-05-10T05:52:16.738Z,360.00
2019-05-10T05:53:16.792Z,360.00
2019-05-10T05:54:20.699Z,356.00
2019-05-10T05:55:16.898Z,364.00
2019-05-10T05:56:16.966Z,364.00
2019-05-10T05:57:17.037Z,328.00
2019-05-10T05:58:26.627Z,276.00
2019-05-10T05:59:23.192Z,252.00
2019-05-10T06:00:17.211Z,260.00
2019-05-10T06:01:26.283Z,240.00
2019-05-10T06:02:17.511Z,228.00
2019-05-10T06:03:27.472Z,224.00
2019-05-10T06:04:17.458Z,236.00
2019-05-10T06:05:32.703Z,240.00
2019-05-10T06:06:21.736Z,260.00
2019-05-10T06:07:17.644Z,280.00
2019-05-10T06:08:22.964Z,292.00
2019-05-10T06:09:17.767Z,340.00
2019-05-10T06:10:19.803Z,392.00
2019-05-10T06:11:17.893Z,436.00
2019-05-10T06:12:17.959Z,448.00
2019-05-10T06:13:23.298Z,508.00
2019-05-10T06:14:18.093Z,524.00
2019-05-10T06:15:23.063Z,544.00
2019-05-10T06:16:18.199Z,548.00
2019-05-10T06:17:18.353Z,524.00
2019-05-10T06:18:18.334Z,496.00
2019-05-10T06:19:20.561Z,436.00
2019-05-10T06:20:18.449Z,416.00
2019-05-10T06:21:25.178Z,384.00
2019-05-10T06:22:18.579Z,368.00
2019-05-10T06:23:18.659Z,348.00
2019-05-10T06:24:18.701Z,352.00
2019-05-10T06:25:18.795Z,368.00
2019-05-10T06:26:26.546Z,292.00
2019-05-10T06:27:18.892Z,308.00
2019-05-10T06:28:28.662Z,308.00
2019-05-10T06:29:19.921Z,328.00
2019-05-10T06:30:19.068Z,352.00
2019-05-10T06:31:19.136Z,312.00
2019-05-10T06:32:19.208Z,372.00
2019-05-10T06:33:19.258Z,428.00
2019-05-10T06:34:19.316Z,448.00
2019-05-10T06:35:20.794Z,464.00
2019-05-10T06:36:19.442Z,544.00
2019-05-10T06:37:19.512Z,512.00
2019-05-10T06:38:19.572Z,580.00
2019-05-10T06:39:19.630Z,668.00
2019-05-10T06:40:33.467Z,700.00
2019-05-10T06:41:19.753Z,748.00
2019-05-10T06:42:19.820Z,704.00
2019-05-10T06:43:19.885Z,728.00
2019-05-10T06:44:24.923Z,672.00
2019-05-10T06:45:20.001Z,656.00
2019-05-10T06:46:23.633Z,704.00
2019-05-10T06:47:22.057Z,808.00
2019-05-10T06:48:27.520Z,692.00
2019-05-10T06:49:20.252Z,652.00
2019-05-10T06:50:28.847Z,524.00
2019-05-10T06:51:20.374Z,464.00
2019-05-10T06:52:21.982Z,480.00
2019-05-10T06:53:23.289Z,472.00
2019-05-10T06:54:20.558Z,440.00
2019-05-10T06:55:20.622Z,472.00
2019-05-10T06:56:20.685Z,508.00
2019-05-10T06:57:20.763Z,556.00
2019-05-10T06:58:20.813Z,620.00
2019-05-10T06:59:24.987Z,624.00
2019-05-10T07:00:20.936Z,564.00
2019-05-10T07:01:20.993Z,544.00
2019-05-10T07:02:26.164Z,620.00
2019-05-10T07:03:21.125Z,636.00
2019-05-10T07:04:21.179Z,536.00
2019-05-10T07:05:21.251Z,568.00
2019-05-10T07:06:21.302Z,572.00
2019-05-10T07:07:42.417Z,564.00
2019-05-10T07:08:21.439Z,540.00
2019-05-10T07:09:21.492Z,516.00
2019-05-10T07:10:25.184Z,576.00
2019-05-10T07:11:21.615Z,632.00
2019-05-10T07:12:21.690Z,528.00
2019-05-10T07:13:21.748Z,492.00
2019-05-10T07:14:25.513Z,488.00
2019-05-10T07:15:21.862Z,516.00
2019-05-10T07:16:25.602Z,440.00
2019-05-10T07:17:21.998Z,480.00
2019-05-10T07:18:24.074Z,548.00
2019-05-10T07:19:22.114Z,564.00
2019-05-10T07:20:23.591Z,596.00
2019-05-10T07:21:22.240Z,536.00
2019-05-10T07:22:27.262Z,496.00
2019-05-10T07:23:22.358Z,448.00
2019-05-10T07:24:24.905Z,460.00
2019-05-10T07:25:22.486Z,440.00
2019-05-10T07:26:24.732Z,460.00
2019-05-10T07:27:22.615Z,476.00
2019-05-10T07:28:22.681Z,476.00
2019-05-10T07:29:30.179Z,452.00
2019-05-10T07:30:22.796Z,524.00
2019-05-10T07:31:23.824Z,532.00
2019-05-10T07:32:24.635Z,612.00
2019-05-10T07:33:22.995Z,784.00
2019-05-10T07:34:23.047Z,740.00
2019-05-10T07:35:23.108Z,668.00
2019-05-10T07:36:27.235Z,564.00
2019-05-10T07:37:23.324Z,568.00
2019-05-10T07:38:30.199Z,572.00
2019-05-10T07:39:23.360Z,576.00
2019-05-10T07:40:23.435Z,584.00
2019-05-10T07:41:26.376Z,608.00
2019-05-10T07:42:23.549Z,616.00
2019-05-10T07:43:26.536Z,644.00
2019-05-10T07:44:23.664Z,616.00
2019-05-10T07:45:25.741Z,576.00
2019-05-10T07:46:23.792Z,548.00
2019-05-10T07:47:29.897Z,480.00
2019-05-10T07:48:23.933Z,464.00
2019-05-10T07:49:29.979Z,452.00
2019-05-10T07:50:24.044Z,464.00
2019-05-10T07:51:28.819Z,480.00
2019-05-10T07:52:24.258Z,452.00
2019-05-10T07:53:25.236Z,400.00
2019-05-10T07:54:24.288Z,352.00
2019-05-10T07:55:28.194Z,332.00
2019-05-10T07:56:24.419Z,328.00
2019-05-10T07:57:26.817Z,380.00
2019-05-10T07:58:24.556Z,396.00
2019-05-10T07:59:29.089Z,336.00
2019-05-10T08:00:25.465Z,308.00
2019-05-10T08:01:32.553Z,324.00
2019-05-10T08:02:24.792Z,464.00
2019-05-10T08:03:24.862Z,572.00
2019-05-10T08:04:28.926Z,696.00
2019-05-10T08:05:24.993Z,1336.00
2019-05-10T08:06:25.036Z,2188.00
2019-05-10T08:07:25.231Z,2616.00
2019-05-10T08:08:25.162Z,2656.00
2019-05-10T08:09:25.250Z,2408.00
2019-05-10T08:10:25.285Z,2412.00
2019-05-10T08:11:25.349Z,2408.00
2019-05-10T08:12:25.433Z,2120.00
2019-05-10T08:13:25.481Z,2040.00
2019-05-10T08:14:25.619Z,1688.00
2019-05-10T08:15:30.556Z,1284.00
2019-05-10T08:16:25.664Z,1408.00
2019-05-10T08:17:25.731Z,1364.00
2019-05-10T08:18:25.794Z,1248.00
2019-05-10T08:19:25.850Z,1072.00
2019-05-10T08:20:41.619Z,1008.00
2019-05-10T08:21:26.559Z,992.00
2019-05-10T08:22:26.043Z,956.00
2019-05-10T08:23:27.979Z,900.00
2019-05-10T08:24:26.162Z,852.00
2019-05-10T08:25:29.293Z,804.00
2019-05-10T08:26:26.287Z,756.00
2019-05-10T08:27:26.355Z,824.00
2019-05-10T08:28:28.105Z,868.00
2019-05-10T08:29:26.475Z,764.00
2019-05-10T08:30:29.234Z,648.00
2019-05-10T08:31:33.899Z,612.00
2019-05-10T08:32:29.957Z,592.00
2019-05-10T08:33:26.734Z,576.00
2019-05-10T08:34:28.837Z,556.00
2019-05-10T08:35:26.856Z,580.00
2019-05-10T08:36:26.910Z,596.00
2019-05-10T08:37:36.188Z,588.00
2019-05-10T08:38:27.044Z,556.00
2019-05-10T08:39:27.102Z,540.00
2019-05-10T08:40:34.337Z,592.00
2019-05-10T08:41:27.223Z,704.00
2019-05-10T08:42:37.802Z,728.00
2019-05-10T08:43:30.728Z,664.00
2019-05-10T08:44:27.411Z,632.00
2019-05-10T08:45:27.476Z,720.00
2019-05-10T08:46:35.042Z,788.00
2019-05-10T08:47:28.020Z,796.00
2019-05-10T08:48:27.865Z,748.00
2019-05-10T08:49:39.415Z,708.00
2019-05-10T08:50:43.891Z,652.00
2019-05-10T08:51:27.848Z,652.00
2019-05-10T08:52:31.693Z,740.00
2019-05-10T08:53:27.989Z,788.00
2019-05-10T08:54:28.035Z,780.00
2019-05-10T08:55:28.100Z,784.00
2019-05-10T08:56:28.160Z,824.00
2019-05-10T08:57:28.245Z,916.00
2019-05-10T08:58:36.740Z,1000.00
2019-05-10T08:59:30.815Z,1112.00
2019-05-10T09:00:41.420Z,1228.00
2019-05-10T09:01:30.666Z,1400.00
2019-05-10T09:02:30.165Z,1616.00
2019-05-10T09:03:28.605Z,1780.00
2019-05-10T09:04:33.494Z,1852.00
2019-05-10T09:05:31.302Z,1868.00
2019-05-10T09:06:28.786Z,1868.00
2019-05-10T09:07:29.425Z,1788.00
2019-05-10T09:08:31.721Z,1644.00
2019-05-10T09:09:33.853Z,1588.00
2019-05-10T09:10:29.036Z,1620.00
2019-05-10T09:11:29.100Z,1660.00
2019-05-10T09:12:29.716Z,1716.00
2019-05-10T09:13:37.087Z,1844.00
2019-05-10T09:14:29.284Z,2072.00
2019-05-10T09:15:29.349Z,2368.00
2019-05-10T09:16:34.865Z,2596.00
2019-05-10T09:17:29.482Z,2652.00
2019-05-10T09:18:29.546Z,2620.00
2019-05-10T09:19:39.275Z,2508.00
2019-05-10T09:20:31.398Z,2336.00
2019-05-10T09:21:32.026Z,2124.00
2019-05-10T09:22:33.859Z,1892.00
2019-05-10T09:23:29.854Z,1700.00
2019-05-10T09:24:34.529Z,1544.00
2019-05-10T09:25:31.562Z,1436.00
2019-05-10T09:26:32.098Z,1368.00
2019-05-10T09:27:31.293Z,1352.00
2019-05-10T09:28:32.178Z,1348.00
2019-05-10T09:29:35.113Z,1344.00
2019-05-10T09:30:32.471Z,1328.00
2019-05-10T09:31:32.522Z,1300.00
2019-05-10T09:32:31.414Z,1264.00
2019-05-10T09:33:31.985Z,1212.00
2019-05-10T09:34:32.477Z,1156.00
2019-05-10T09:35:32.831Z,1104.00
2019-05-10T09:36:35.360Z,1072.00
2019-05-10T09:37:31.989Z,1056.00
2019-05-10T09:38:37.170Z,1052.00
2019-05-10T09:39:32.110Z,1064.00
2019-05-10T09:40:32.743Z,1076.00
2019-05-10T09:41:33.811Z,1072.00
2019-05-10T09:42:39.373Z,1072.00
2019-05-10T09:43:31.918Z,1080.00
2019-05-10T09:44:32.980Z,1092.00
2019-05-10T09:45:32.490Z,1116.00
2019-05-10T09:46:32.433Z,1132.00
2019-05-10T09:47:32.992Z,1156.00
2019-05-10T09:48:33.330Z,1244.00
2019-05-10T09:49:33.258Z,1416.00
2019-05-10T09:50:41.245Z,1592.00
2019-05-10T09:51:33.077Z,1708.00
2019-05-10T09:52:31.680Z,1740.00
2019-05-10T09:53:31.739Z,1788.00
2019-05-10T09:54:33.455Z,1860.00
2019-05-10T09:55:31.858Z,1996.00
2019-05-10T09:56:32.877Z,2128.00
2019-05-10T09:57:32.372Z,2176.00
2019-05-10T09:58:32.055Z,2176.00
2019-05-10T09:59:32.111Z,2164.00
2019-05-10T10:00:32.171Z,2084.00
2019-05-10T10:01:32.236Z,1928.00
2019-05-10T10:02:33.842Z,1740.00
2019-05-10T10:03:39.758Z,1568.00
2019-05-10T10:04:32.423Z,1428.00
2019-05-10T10:05:32.484Z,1344.00
2019-05-10T10:06:32.551Z,1328.00
2019-05-10T10:07:33.630Z,1356.00
2019-05-10T10:08:32.679Z,1424.00
2019-05-10T10:09:37.326Z,1564.00
2019-05-10T10:10:32.801Z,1748.00
2019-05-10T10:11:32.862Z,1868.00
2019-05-10T10:12:32.935Z,1888.00
2019-05-10T10:13:39.785Z,1892.00
2019-05-10T10:14:38.223Z,1872.00
2019-05-10T10:15:34.312Z,1860.00
2019-05-10T10:16:33.176Z,1880.00
2019-05-10T10:17:40.290Z,1948.00
2019-05-10T10:18:33.311Z,2048.00
2019-05-10T10:19:33.367Z,2148.00
2019-05-10T10:20:36.081Z,2260.00
2019-05-10T10:21:35.459Z,2392.00
2019-05-10T10:22:33.561Z,2568.00
2019-05-10T10:23:37.244Z,2768.00
2019-05-10T10:24:33.682Z,2964.00
2019-05-10T10:25:35.189Z,3116.00
2019-05-10T10:26:33.809Z,3264.00
2019-05-10T10:27:36.138Z,3360.00
2019-05-10T10:28:37.206Z,3400.00
2019-05-10T10:29:35.993Z,3496.00
2019-05-10T10:30:34.060Z,3592.00
2019-05-10T10:31:48.351Z,3588.00
2019-05-10T10:32:35.046Z,3492.00
2019-05-10T10:33:34.245Z,3320.00
2019-05-10T10:34:38.565Z,3140.00
2019-05-10T10:35:34.375Z,2948.00
2019-05-10T10:36:40.215Z,2712.00
2019-05-10T10:37:34.510Z,2496.00
2019-05-10T10:38:37.131Z,2332.00
2019-05-10T10:39:37.044Z,2220.00
2019-05-10T10:40:35.404Z,2148.00
2019-05-10T10:41:34.752Z,2060.00
2019-05-10T10:42:34.821Z,1996.00
2019-05-10T10:43:37.013Z,2004.00
2019-05-10T10:44:37.071Z,1984.00
2019-05-10T10:45:37.399Z,1948.00
2019-05-10T10:46:35.071Z,1928.00
2019-05-10T10:47:35.230Z,1904.00
2019-05-10T10:48:37.007Z,1884.00
2019-05-10T10:49:35.258Z,1884.00
2019-05-10T10:50:35.321Z,1892.00
2019-05-10T10:51:35.382Z,1884.00
2019-05-10T10:52:37.486Z,1860.00
2019-05-10T10:53:35.513Z,1840.00
2019-05-10T10:54:37.462Z,1832.00
2019-05-10T10:55:39.411Z,1816.00
2019-05-10T10:56:37.415Z,1800.00
2019-05-10T10:57:37.397Z,1768.00
2019-05-10T10:58:35.829Z,1768.00
2019-05-10T10:59:37.329Z,1768.00
2019-05-10T11:00:39.001Z,1756.00
2019-05-10T11:01:47.213Z,1756.00
2019-05-10T11:02:36.162Z,1752.00
2019-05-10T11:03:36.139Z,1748.00
2019-05-10T11:04:40.443Z,1744.00
2019-05-10T11:05:36.266Z,1748.00
2019-05-10T11:06:36.329Z,1808.00
2019-05-10T11:07:38.784Z,2036.00
2019-05-10T11:08:36.457Z,2404.00
2019-05-10T11:09:36.522Z,2788.00
2019-05-10T11:10:36.579Z,3128.00
2019-05-10T11:11:44.391Z,3352.00
2019-05-10T11:12:36.714Z,3448.00
2019-05-10T11:13:44.126Z,3432.00
2019-05-10T11:14:39.976Z,3272.00
2019-05-10T11:15:36.896Z,3024.00
2019-05-10T11:16:36.954Z,2692.00
2019-05-10T11:17:37.026Z,2356.00
2019-05-10T11:18:37.097Z,2096.00
2019-05-10T11:19:37.152Z,1864.00
2019-05-10T11:20:42.027Z,1720.00
2019-05-10T11:21:37.277Z,1672.00
2019-05-10T11:22:42.102Z,1724.00
2019-05-10T11:23:39.091Z,1820.00
2019-05-10T11:24:37.464Z,1984.00
2019-05-10T11:25:42.772Z,2256.00
2019-05-10T11:26:37.587Z,2584.00
2019-05-10T11:27:37.664Z,2860.00
2019-05-10T11:28:43.462Z,3048.00
2019-05-10T11:29:37.783Z,3168.00
2019-05-10T11:30:37.839Z,3288.00
2019-05-10T11:31:37.907Z,3388.00
2019-05-10T11:32:37.977Z,3464.00
2019-05-10T11:33:38.045Z,3504.00
2019-05-10T11:34:38.960Z,3464.00
2019-05-10T11:35:38.160Z,3368.00
2019-05-10T11:36:40.500Z,3256.00
2019-05-10T11:37:38.298Z,3228.00
2019-05-10T11:38:38.349Z,3308.00
2019-05-10T11:39:45.177Z,3512.00
2019-05-10T11:40:38.477Z,3788.00
2019-05-10T11:41:38.541Z,4056.00
2019-05-10T11:42:43.783Z,4392.00
2019-05-10T11:43:38.673Z,4588.00
2019-05-10T11:44:41.507Z,4640.00
2019-05-10T11:45:41.968Z,4504.00
2019-05-10T11:46:41.479Z,4340.00
2019-05-10T11:47:40.916Z,4180.00
2019-05-10T11:48:41.939Z,3944.00
2019-05-10T11:49:40.673Z,3636.00
2019-05-10T11:50:41.070Z,3580.00
2019-05-10T11:51:41.349Z,3668.00
2019-05-10T11:52:40.790Z,3860.00
2019-05-10T11:53:41.493Z,4068.00
2019-05-10T11:54:41.563Z,4300.00
2019-05-10T11:55:41.193Z,4452.00
2019-05-10T11:56:41.078Z,4492.00
2019-05-10T11:57:43.955Z,4360.00
2019-05-10T11:58:49.858Z,4140.00
2019-05-10T11:59:41.546Z,4036.00
2019-05-10T12:00:41.409Z,4128.00
2019-05-10T12:01:41.862Z,4308.00
2019-05-10T12:03:00.933Z,4484.00
2019-05-10T12:03:42.369Z,4776.00
2019-05-10T12:04:43.263Z,5248.00
2019-05-10T12:05:42.417Z,5708.00
2019-05-10T12:06:41.246Z,5928.00
2019-05-10T12:07:43.408Z,5820.00
2019-05-10T12:08:41.826Z,5652.00
2019-05-10T12:09:42.554Z,5520.00
2019-05-10T12:10:43.036Z,5500.00
2019-05-10T12:11:51.522Z,5620.00
2019-05-10T12:12:54.643Z,5996.00
2019-05-10T12:13:40.593Z,6124.00
2019-05-10T12:14:43.640Z,6400.00
2019-05-10T12:16:41.970Z,6416.00
2019-05-10T12:18:46.379Z,6404.00
2019-05-10T12:20:54.371Z,8608.00
2019-05-10T12:21:41.099Z,8104.00
2019-05-10T12:22:47.185Z,5836.00
2019-05-10T12:23:50.199Z,5288.00
2019-05-10T12:24:57.182Z,4764.00
2019-05-10T12:25:57.362Z,4588.00
2019-05-10T12:26:08.470Z,8344.00
2019-05-10T12:26:27.770Z,6396.00
2019-05-10T12:26:31.278Z,6448.00
2019-05-10T12:27:13.964Z,4688.00
2019-05-10T12:27:47.882Z,4680.00
2019-05-10T12:28:41.560Z,4932.00
2019-05-10T12:29:41.620Z,5092.00
2019-05-10T12:30:41.688Z,4968.00
2019-05-10T12:31:41.750Z,4812.00
2019-05-10T12:32:54.981Z,4748.00
2019-05-10T12:33:45.198Z,4932.00
2019-05-10T12:34:46.085Z,5120.00
2019-05-10T12:35:47.117Z,5116.00
2019-05-10T12:36:43.532Z,5252.00
2019-05-10T12:37:46.194Z,5332.00